createdAt,value
2022-07-30T00:00:38.940Z,63.4370
2022-07-30T00:01:41.385Z,63.2300
2022-07-30T00:02:41.484Z,63.2070
2022-07-30T00:03:43.897Z,63.0460
2022-07-30T00:04:46.156Z,62.9430
2022-07-30T00:05:48.443Z,62.9980
2022-07-30T00:06:50.817Z,62.8340
2022-07-30T00:07:53.136Z,63.0040
2022-07-30T00:08:53.366Z,63.0210
2022-07-30T00:09:55.733Z,63.2570
2022-07-30T00:10:58.106Z,63.3800
2022-07-30T00:12:00.473Z,63.2240
2022-07-30T00:13:00.645Z,63.3250
2022-07-30T00:14:02.995Z,63.2660
2022-07-30T00:15:05.338Z,63.3680
2022-07-30T00:16:07.687Z,63.3050
2022-07-30T00:17:10.123Z,63.2660
2022-07-30T00:18:10.219Z,63.4010
2022-07-30T00:19:12.526Z,63.0920
2022-07-30T00:20:14.817Z,63.0040
2022-07-30T00:21:20.228Z,62.7750
2022-07-30T00:22:17.374Z,62.7980
2022-07-30T00:23:19.631Z,62.8860
2022-07-30T00:24:21.912Z,62.7500
2022-07-30T00:25:24.264Z,62.6540
2022-07-30T00:26:26.589Z,62.7720
2022-07-30T00:27:28.957Z,62.9030
2022-07-30T00:28:29.096Z,62.8930
2022-07-30T00:29:31.418Z,62.8490
2022-07-30T00:30:33.781Z,62.9340
2022-07-30T00:31:36.068Z,62.8560
2022-07-30T00:32:38.433Z,62.8050
2022-07-30T00:33:40.728Z,62.8600
2022-07-30T00:34:40.904Z,62.9780
2022-07-30T00:35:43.235Z,63.2360
2022-07-30T00:36:45.572Z,63.2630
2022-07-30T00:37:47.935Z,63.3380
2022-07-30T00:38:50.256Z,63.6200
2022-07-30T00:39:50.444Z,63.4820
2022-07-30T00:40:52.779Z,63.5140
2022-07-30T00:41:55.075Z,63.4950
2022-07-30T00:44:12.668Z,63.6450
2022-07-30T00:45:14.816Z,63.4930
2022-07-30T00:46:17.110Z,63.4580
2022-07-30T00:47:19.342Z,63.7660
2022-07-30T00:48:19.497Z,63.8230
2022-07-30T00:49:21.887Z,64.0350
2022-07-30T00:50:24.183Z,64.0350
2022-07-30T00:51:26.533Z,64.1690
2022-07-30T00:52:28.879Z,64.0630
2022-07-30T00:53:31.174Z,64.0060
2022-07-30T00:54:31.409Z,63.7400
2022-07-30T00:55:33.688Z,63.6480
2022-07-30T00:56:36.013Z,63.4930
2022-07-30T00:57:39.338Z,63.5020
2022-07-30T00:58:40.662Z,63.5640
2022-07-30T00:59:40.888Z,64.0240
2022-07-30T01:00:43.200Z,64.3980
2022-07-30T01:01:45.562Z,64.4860
2022-07-30T01:02:47.837Z,64.4660
2022-07-30T01:03:50.212Z,64.2650
2022-07-30T01:04:52.747Z,64.3510
2022-07-30T01:05:52.781Z,64.4660
2022-07-30T01:06:55.056Z,64.6810
2022-07-30T01:07:57.366Z,64.6820
2022-07-30T01:08:59.708Z,64.8160
2022-07-30T01:09:59.923Z,64.6810
2022-07-30T01:11:02.209Z,64.6760
2022-07-30T01:12:04.549Z,64.6200
2022-07-30T01:13:04.739Z,64.5170
2022-07-30T01:14:07.085Z,64.6290
2022-07-30T01:15:07.313Z,64.5220
2022-07-30T01:16:09.684Z,64.5150
2022-07-30T01:17:11.982Z,64.3780
2022-07-30T01:18:14.345Z,64.2970
2022-07-30T01:19:16.699Z,64.1870
2022-07-30T01:20:16.938Z,64.2190
2022-07-30T01:21:19.265Z,64.0510
2022-07-30T01:22:21.612Z,64.0120
2022-07-30T01:23:23.929Z,63.9530
2022-07-30T01:24:24.103Z,63.8150
2022-07-30T01:25:26.503Z,63.8100
2022-07-30T01:26:28.722Z,64.1380
2022-07-30T01:27:31.031Z,64.3780
2022-07-30T01:28:33.314Z,64.5430
2022-07-30T01:29:35.559Z,64.5030
2022-07-30T01:30:35.738Z,64.2910
2022-07-30T01:31:38.006Z,64.3090
2022-07-30T01:32:40.204Z,64.2840
2022-07-30T01:33:42.486Z,64.2120
2022-07-30T01:34:44.807Z,64.3860
2022-07-30T01:35:47.151Z,64.3950
2022-07-30T01:36:49.452Z,64.5180
2022-07-30T01:37:49.621Z,64.5230
2022-07-30T01:38:51.951Z,64.7390
2022-07-30T01:39:54.291Z,64.6000
2022-07-30T01:40:56.683Z,64.6760
2022-07-30T01:41:58.983Z,64.6960
2022-07-30T01:42:59.152Z,64.5110
2022-07-30T01:44:01.439Z,64.3590
2022-07-30T01:45:03.756Z,64.4010
2022-07-30T01:46:06.218Z,64.4010
2022-07-30T01:47:08.365Z,64.3460
2022-07-30T01:48:10.639Z,64.5340
2022-07-30T01:49:13.041Z,64.5670
2022-07-30T01:50:13.133Z,64.7110
2022-07-30T01:51:15.477Z,64.9860
2022-07-30T01:52:17.735Z,64.8900
2022-07-30T01:53:20.070Z,64.9490
2022-07-30T01:54:22.394Z,64.8780
2022-07-30T01:55:24.739Z,65.0680
2022-07-30T01:56:25.179Z,64.7460
2022-07-30T01:57:27.243Z,64.8160
2022-07-30T01:58:29.625Z,64.8020
2022-07-30T01:59:32.041Z,64.8380
2022-07-30T02:00:32.279Z,64.7830
2022-07-30T02:01:34.644Z,64.9090
2022-07-30T02:02:36.931Z,64.9160
2022-07-30T02:03:28.189Z,65.0030
2022-07-30T02:04:30.959Z,65.0700
2022-07-30T02:05:33.289Z,64.9160
2022-07-30T02:06:33.485Z,64.9140
2022-07-30T02:07:35.824Z,64.9290
2022-07-30T02:08:38.127Z,64.8410
2022-07-30T02:09:44.397Z,64.9790
2022-07-30T02:10:42.826Z,65.1250
2022-07-30T02:11:43.006Z,65.2090
2022-07-30T02:12:45.359Z,65.3030
2022-07-30T02:13:47.626Z,65.5970
2022-07-30T02:14:47.795Z,65.5710
2022-07-30T02:15:50.063Z,65.7100
2022-07-30T02:16:52.374Z,65.5330
2022-07-30T02:17:54.710Z,65.4260
2022-07-30T02:18:57.049Z,65.2900
2022-07-30T02:19:59.289Z,65.4930
2022-07-30T02:21:01.618Z,65.4580
2022-07-30T02:22:03.927Z,65.5320
2022-07-30T02:23:06.245Z,65.6170
2022-07-30T02:24:08.498Z,65.7220
2022-07-30T02:25:10.755Z,65.7100
2022-07-30T02:26:10.903Z,66.1630
2022-07-30T02:27:13.267Z,66.0820
2022-07-30T02:28:15.676Z,65.9850
2022-07-30T02:29:17.999Z,66.2550
2022-07-30T02:30:18.217Z,66.4000
2022-07-30T02:31:20.643Z,66.5280
2022-07-30T02:32:22.934Z,66.3250
2022-07-30T02:33:25.343Z,66.3940
2022-07-30T02:34:27.661Z,66.3320
2022-07-30T02:35:27.835Z,66.0470
2022-07-30T02:36:30.190Z,66.0930
2022-07-30T02:37:42.978Z,66.5990
2022-07-30T02:38:34.957Z,66.4850
2022-07-30T02:39:37.312Z,66.1570
2022-07-30T02:40:37.511Z,66.3670
2022-07-30T02:41:39.855Z,66.4310
2022-07-30T02:42:42.197Z,66.1080
2022-07-30T02:43:44.573Z,66.0700
2022-07-30T02:44:46.868Z,65.9970
2022-07-30T02:45:47.037Z,66.0740
2022-07-30T02:46:49.443Z,66.0620
2022-07-30T02:47:51.570Z,66.4340
2022-07-30T02:48:53.923Z,66.3050
2022-07-30T02:49:56.161Z,66.1000
2022-07-30T02:50:58.432Z,66.2590
2022-07-30T02:51:58.633Z,66.3950
2022-07-30T02:53:00.967Z,66.1920
2022-07-30T02:54:03.613Z,66.0930
2022-07-30T02:55:05.591Z,65.7570
2022-07-30T02:56:07.909Z,65.7950
2022-07-30T02:57:08.085Z,65.8590
2022-07-30T02:58:10.376Z,65.7500
2022-07-30T02:59:12.710Z,65.5590
2022-07-30T03:00:14.975Z,65.4450
2022-07-30T03:01:17.355Z,65.1650
2022-07-30T03:02:25.896Z,64.8330
2022-07-30T03:03:21.888Z,64.9270
2022-07-30T03:04:22.038Z,65.2510
2022-07-30T03:05:24.308Z,65.5330
2022-07-30T03:06:26.655Z,65.6720
2022-07-30T03:07:28.962Z,65.3620
2022-07-30T03:10:03.869Z,65.6410
2022-07-30T03:11:06.130Z,65.7030
2022-07-30T03:12:06.302Z,65.7170
2022-07-30T03:13:08.657Z,65.8460
2022-07-30T03:14:10.939Z,66.3890
2022-07-30T03:15:13.257Z,66.7020
2022-07-30T03:16:15.634Z,66.5990
2022-07-30T03:17:17.852Z,66.6950
2022-07-30T03:18:18.030Z,66.5110
2022-07-30T03:19:20.396Z,66.3750
2022-07-30T03:20:22.754Z,66.5550
2022-07-30T03:21:25.060Z,66.5940
2022-07-30T03:22:32.606Z,66.2610
2022-07-30T03:23:27.551Z,66.0670
2022-07-30T03:24:29.863Z,66.4350
2022-07-30T03:26:41.149Z,66.8120
2022-07-30T03:27:43.361Z,66.6710
2022-07-30T03:28:45.717Z,66.3750
2022-07-30T03:29:48.091Z,66.2290
2022-07-30T03:30:50.458Z,66.0670
2022-07-30T03:31:50.776Z,66.1960
2022-07-30T03:32:52.961Z,65.9270
2022-07-30T03:33:55.323Z,65.5070
2022-07-30T03:34:57.673Z,65.1820
2022-07-30T03:35:59.992Z,64.7270
2022-07-30T03:37:02.803Z,65.0630
2022-07-30T03:38:02.488Z,65.3520
2022-07-30T03:39:04.796Z,65.6240
2022-07-30T03:40:07.159Z,65.6590
2022-07-30T03:41:09.468Z,65.5080
2022-07-30T03:42:11.805Z,65.6710
2022-07-30T03:43:32.750Z,65.8050
2022-07-30T03:44:14.283Z,65.9160
2022-07-30T03:45:16.668Z,66.0950
2022-07-30T03:46:19.139Z,66.1530
2022-07-30T03:47:21.516Z,66.6270
2022-07-30T03:48:21.745Z,66.8130
2022-07-30T03:49:24.170Z,66.7200
2022-07-30T03:50:26.397Z,67.3790
2022-07-30T03:51:32.982Z,67.8430
2022-07-30T03:52:31.108Z,68.1260
2022-07-30T03:53:31.240Z,67.7530
2022-07-30T03:54:33.597Z,67.6220
2022-07-30T03:55:35.956Z,67.6160
2022-07-30T03:56:38.267Z,67.6860
2022-07-30T03:57:40.594Z,67.8950
2022-07-30T03:58:42.939Z,68.1400
2022-07-30T03:59:43.180Z,68.0630
2022-07-30T04:00:45.549Z,68.0310
2022-07-30T04:01:47.998Z,67.8670
2022-07-30T04:02:48.149Z,67.5010
2022-07-30T04:03:50.400Z,67.4220
2022-07-30T04:04:52.658Z,67.1890
2022-07-30T04:05:54.988Z,67.4440
2022-07-30T04:06:57.322Z,68.1400
2022-07-30T04:07:59.672Z,68.3470
2022-07-30T04:09:01.921Z,68.2710
2022-07-30T04:10:02.070Z,68.1210
2022-07-30T04:11:04.393Z,67.8090
2022-07-30T04:12:06.741Z,67.9340
2022-07-30T04:13:09.706Z,68.3820
2022-07-30T04:14:11.442Z,68.6350
2022-07-30T04:16:39.879Z,68.2450
2022-07-30T04:16:40.583Z,68.3100
2022-07-30T04:17:16.422Z,68.7810
2022-07-30T04:18:18.747Z,68.9020
2022-07-30T04:19:21.097Z,68.9110
2022-07-30T04:20:21.300Z,68.4690
2022-07-30T04:21:23.645Z,68.1400
2022-07-30T04:22:25.982Z,68.0620
2022-07-30T04:23:28.336Z,68.1280
2022-07-30T04:24:30.595Z,67.8100
2022-07-30T04:25:30.723Z,67.6500
2022-07-30T04:26:33.075Z,67.9070
2022-07-30T04:27:35.391Z,67.7400
2022-07-30T04:28:37.731Z,67.8100
2022-07-30T04:29:40.056Z,67.8240
2022-07-30T04:30:42.406Z,67.7450
2022-07-30T04:31:42.692Z,67.8310
2022-07-30T04:32:44.961Z,67.8610
2022-07-30T04:33:47.376Z,68.1130
2022-07-30T04:34:49.728Z,67.7660
2022-07-30T04:35:52.528Z,67.5260
2022-07-30T04:36:52.269Z,67.6890
2022-07-30T04:37:54.619Z,67.4430
2022-07-30T04:38:56.972Z,67.2180
2022-07-30T04:39:59.271Z,67.4360
2022-07-30T04:40:59.460Z,67.5640
2022-07-30T04:42:01.822Z,67.3600
2022-07-30T04:43:04.124Z,67.4360
2022-07-30T04:44:06.493Z,67.4420
2022-07-30T04:45:08.808Z,67.5410
2022-07-30T04:46:09.104Z,67.5330
2022-07-30T04:47:11.267Z,67.5130
2022-07-30T04:48:13.601Z,67.8360
2022-07-30T04:49:16.028Z,67.6630
2022-07-30T04:50:18.295Z,67.4220
2022-07-30T04:51:20.629Z,67.4540
2022-07-30T04:52:20.779Z,67.4110
2022-07-30T04:53:23.102Z,67.5380
2022-07-30T04:54:25.464Z,67.7700
2022-07-30T04:55:27.703Z,67.6150
2022-07-30T04:56:30.021Z,67.3470
2022-07-30T04:57:32.319Z,67.2950
2022-07-30T04:58:32.417Z,67.2310
2022-07-30T04:59:34.713Z,67.1600
2022-07-30T05:00:40.958Z,67.1890
2022-07-30T05:01:40.894Z,67.2680
2022-07-30T05:02:41.458Z,67.1450
2022-07-30T05:03:43.706Z,67.0830
2022-07-30T05:04:45.996Z,66.8550
2022-07-30T05:05:48.261Z,66.9660
2022-07-30T05:06:50.529Z,67.1000
2022-07-30T05:07:50.627Z,67.0680
2022-07-30T05:08:52.888Z,66.9740
2022-07-30T05:09:55.194Z,67.1270
2022-07-30T05:10:57.470Z,67.1990
2022-07-30T05:11:59.774Z,67.5580
2022-07-30T05:13:02.044Z,67.4930
2022-07-30T05:14:04.325Z,67.2680
2022-07-30T05:15:04.476Z,67.4730
2022-07-30T05:16:06.867Z,67.4180
2022-07-30T05:17:09.039Z,67.5910
2022-07-30T05:18:11.346Z,67.8350
2022-07-30T05:19:13.651Z,67.6300
2022-07-30T05:20:15.973Z,67.6030
2022-07-30T05:21:18.217Z,67.4610
2022-07-30T05:22:18.360Z,67.2550
2022-07-30T05:23:20.661Z,66.9670
2022-07-30T05:24:22.962Z,66.9910
2022-07-30T05:25:25.308Z,67.1990
2022-07-30T05:26:28.058Z,67.3910
2022-07-30T05:27:29.893Z,67.5150
2022-07-30T05:28:30.037Z,67.2670
2022-07-30T05:29:32.319Z,67.1320
2022-07-30T05:30:34.657Z,66.8520
2022-07-30T05:31:38.118Z,66.9080
2022-07-30T05:32:39.190Z,66.7490
2022-07-30T05:33:42.853Z,66.9090
2022-07-30T05:34:43.721Z,66.8450
2022-07-30T05:35:46.031Z,66.8390
2022-07-30T05:36:46.219Z,66.8570
2022-07-30T05:37:48.450Z,66.8040
2022-07-30T05:38:50.676Z,66.6510
2022-07-30T05:40:02.444Z,66.6910
2022-07-30T05:40:55.281Z,66.8710
2022-07-30T05:41:57.553Z,66.8560
2022-07-30T05:42:59.859Z,66.6840
2022-07-30T05:44:00.008Z,66.8120
2022-07-30T05:45:02.293Z,67.0540
2022-07-30T05:46:04.716Z,66.8260
2022-07-30T05:47:06.850Z,66.6120
2022-07-30T05:48:09.156Z,66.5150
2022-07-30T05:49:11.579Z,66.6070
2022-07-30T05:50:11.646Z,67.1060
2022-07-30T05:51:13.996Z,67.3570
2022-07-30T05:52:16.258Z,67.2220
2022-07-30T05:53:18.552Z,67.1320
2022-07-30T05:54:20.849Z,67.0820
2022-07-30T05:55:23.170Z,66.6890
2022-07-30T05:56:23.375Z,66.3880
2022-07-30T05:57:25.617Z,66.2970
2022-07-30T05:58:27.872Z,65.9520
2022-07-30T05:59:30.178Z,65.8460
2022-07-30T06:00:32.497Z,65.8210
2022-07-30T06:01:34.914Z,66.1310
2022-07-30T06:02:37.120Z,66.1820
2022-07-30T06:03:37.292Z,66.1840
2022-07-30T06:04:39.685Z,66.0740
2022-07-30T06:05:41.921Z,66.0550
2022-07-30T06:06:44.269Z,66.1450
2022-07-30T06:07:46.569Z,66.2480
2022-07-30T06:08:46.777Z,66.4470
2022-07-30T06:09:49.143Z,66.2140
2022-07-30T06:10:51.506Z,66.0350
2022-07-30T06:11:53.869Z,65.8140
2022-07-30T06:12:56.182Z,65.5770
2022-07-30T06:13:56.385Z,65.6850
2022-07-30T06:14:58.739Z,65.5570
2022-07-30T06:16:01.151Z,65.4190
2022-07-30T06:17:03.733Z,65.6410
2022-07-30T06:18:05.750Z,65.6170
2022-07-30T06:19:08.074Z,65.6210
2022-07-30T06:20:08.281Z,65.8140
2022-07-30T06:21:10.598Z,65.8390
2022-07-30T06:22:12.908Z,65.6740
2022-07-30T06:23:15.237Z,65.6300
2022-07-30T06:24:15.460Z,65.6090
2022-07-30T06:25:18.547Z,65.6670
2022-07-30T06:26:20.143Z,65.6140
2022-07-30T06:27:22.617Z,65.7290
2022-07-30T06:28:37.624Z,65.9200
2022-07-30T06:29:25.077Z,65.8440
2022-07-30T06:30:31.460Z,65.8960
2022-07-30T06:31:29.749Z,66.0360
2022-07-30T06:32:32.116Z,66.0750
2022-07-30T06:33:32.281Z,65.7160
2022-07-30T06:34:34.575Z,65.7430
2022-07-30T06:35:36.915Z,66.0030
2022-07-30T06:36:39.249Z,65.9140
2022-07-30T06:38:05.611Z,65.7560
2022-07-30T06:38:43.869Z,65.9020
2022-07-30T06:39:57.418Z,65.8700
2022-07-30T06:40:46.336Z,65.8240
2022-07-30T06:41:48.616Z,65.7420
2022-07-30T06:42:50.879Z,65.6710
2022-07-30T06:43:53.128Z,65.6040
2022-07-30T06:44:55.397Z,65.6350
2022-07-30T06:45:57.746Z,65.3280
2022-07-30T06:47:05.227Z,65.2710
2022-07-30T06:48:00.167Z,65.3240
2022-07-30T06:49:02.470Z,65.3180
2022-07-30T06:50:04.627Z,65.3370
2022-07-30T06:51:06.866Z,65.3240
2022-07-30T06:52:09.101Z,65.1250
2022-07-30T06:53:11.381Z,65.1450
2022-07-30T06:54:13.633Z,65.4180
2022-07-30T06:55:15.935Z,65.2230
2022-07-30T06:56:16.098Z,65.0620
2022-07-30T06:57:18.455Z,65.1660
2022-07-30T06:58:25.503Z,65.2490
2022-07-30T06:59:23.165Z,65.1890
2022-07-30T07:00:23.384Z,65.1330
2022-07-30T07:01:25.800Z,65.1150
2022-07-30T07:02:28.040Z,65.0760
2022-07-30T07:03:39.913Z,65.3170
2022-07-30T07:04:32.865Z,65.4820
2022-07-30T07:05:32.952Z,65.5510
2022-07-30T07:06:35.306Z,65.5790
2022-07-30T07:07:42.484Z,65.4890
2022-07-30T07:08:40.033Z,65.3180
2022-07-30T07:09:44.847Z,65.2400
2022-07-30T07:10:43.038Z,65.2490
2022-07-30T07:11:44.910Z,65.3310
2022-07-30T07:12:47.189Z,65.3360
2022-07-30T07:13:49.516Z,65.3860
2022-07-30T07:14:51.774Z,65.4960
2022-07-30T07:15:54.068Z,65.1780
2022-07-30T07:16:56.400Z,64.9230
2022-07-30T07:17:56.488Z,64.7420
2022-07-30T07:18:58.772Z,64.2650
2022-07-30T07:20:02.515Z,63.9430
2022-07-30T07:21:03.422Z,63.9240
2022-07-30T07:22:05.755Z,64.0070
2022-07-30T07:23:09.145Z,63.8440
2022-07-30T07:24:08.268Z,63.4450
2022-07-30T07:25:10.564Z,63.4580
2022-07-30T07:26:12.834Z,63.6470
2022-07-30T07:27:15.671Z,63.6050
2022-07-30T07:28:17.398Z,63.7690
2022-07-30T07:29:19.720Z,63.8190
2022-07-30T07:30:22.051Z,63.7730
2022-07-30T07:32:06.776Z,63.7460
2022-07-30T07:32:24.545Z,63.7480
2022-07-30T07:33:26.869Z,63.6740
2022-07-30T07:34:27.061Z,63.6010
2022-07-30T07:35:29.355Z,63.4040
2022-07-30T07:36:31.693Z,63.0570
2022-07-30T07:37:33.989Z,62.8790
2022-07-30T07:38:36.305Z,62.8470
2022-07-30T07:39:41.972Z,62.9440
2022-07-30T07:40:38.774Z,63.0250
2022-07-30T07:41:48.792Z,63.0200
2022-07-30T07:42:43.443Z,63.0630
2022-07-30T07:43:45.753Z,63.2000
2022-07-30T07:44:48.108Z,63.2460
2022-07-30T07:45:48.412Z,63.2810
2022-07-30T07:46:50.593Z,62.9070
2022-07-30T07:47:53.220Z,62.6300
2022-07-30T07:48:55.266Z,62.1730
2022-07-30T07:49:57.550Z,61.5870
2022-07-30T07:51:00.294Z,61.6290
2022-07-30T07:51:59.999Z,61.5100
2022-07-30T07:53:02.330Z,61.5360
2022-07-30T07:54:20.595Z,61.1450
2022-07-30T07:55:07.001Z,61.1200
2022-07-30T07:56:07.143Z,61.1120
2022-07-30T07:57:10.396Z,60.9410
2022-07-30T07:58:11.739Z,60.8830
2022-07-30T07:59:14.075Z,60.9520
2022-07-30T08:00:16.447Z,60.7980
2022-07-30T08:01:18.752Z,60.9220
2022-07-30T08:02:21.079Z,60.9730
2022-07-30T08:03:21.188Z,60.9790
2022-07-30T08:04:23.454Z,60.8550
2022-07-30T08:05:25.777Z,60.5620
2022-07-30T08:06:28.044Z,60.6680
2022-07-30T08:07:30.343Z,60.6820
2022-07-30T08:08:32.675Z,60.4450
2022-07-30T08:09:42.648Z,60.1870
2022-07-30T08:10:35.106Z,59.9900
2022-07-30T08:11:37.287Z,59.8460
2022-07-30T08:12:39.511Z,59.5370
2022-07-30T08:13:49.038Z,59.0140
2022-07-30T08:14:41.918Z,59.0730
2022-07-30T08:15:44.235Z,59.1250
2022-07-30T08:16:46.567Z,59.1810
2022-07-30T08:17:48.798Z,59.0330
2022-07-30T08:18:51.046Z,59.1220
2022-07-30T08:19:53.343Z,59.1590
2022-07-30T08:20:53.495Z,59.1020
2022-07-30T08:21:55.759Z,59.0680
2022-07-30T08:22:58.036Z,59.1350
2022-07-30T08:24:00.323Z,59.3610
2022-07-30T08:25:03.798Z,59.2390
2022-07-30T08:26:04.911Z,59.0920
2022-07-30T08:27:05.312Z,59.2250
2022-07-30T08:28:07.270Z,59.2830
2022-07-30T08:29:12.998Z,59.2690
2022-07-30T08:30:11.820Z,59.3760
2022-07-30T08:31:14.102Z,59.2640
2022-07-30T08:32:16.349Z,59.3010
2022-07-30T08:33:18.613Z,59.2080
2022-07-30T08:34:20.880Z,59.0480
2022-07-30T08:35:23.143Z,59.0980
2022-07-30T08:36:26.015Z,59.0820
2022-07-30T08:37:25.517Z,59.1500
2022-07-30T08:38:27.771Z,59.0640
2022-07-30T08:39:30.010Z,58.9260
2022-07-30T08:40:32.250Z,58.9020
2022-07-30T08:41:34.516Z,58.6590
2022-07-30T08:43:28.348Z,58.7130
2022-07-30T08:44:30.458Z,58.7000
2022-07-30T08:45:34.508Z,58.7320
2022-07-30T08:46:34.929Z,58.6150
2022-07-30T08:47:37.223Z,58.6410
2022-07-30T08:48:39.513Z,58.6580
2022-07-30T08:49:41.768Z,58.5300
2022-07-30T08:50:44.070Z,58.6290
2022-07-30T08:51:44.195Z,58.6890
2022-07-30T08:52:46.486Z,58.7570
2022-07-30T08:53:48.762Z,58.7490
2022-07-30T08:54:51.060Z,58.6800
2022-07-30T08:55:58.229Z,58.5130
2022-07-30T08:56:55.481Z,58.6460
2022-07-30T08:57:57.776Z,58.5860
2022-07-30T08:59:00.014Z,58.6300
2022-07-30T09:00:01.792Z,58.7220
2022-07-30T09:01:02.320Z,58.7030
2022-07-30T09:02:06.827Z,58.6540
2022-07-30T09:03:06.860Z,58.7020
2022-07-30T09:04:09.033Z,58.6600
2022-07-30T09:05:11.214Z,58.6040
2022-07-30T09:06:13.427Z,58.5190
2022-07-30T09:07:15.645Z,58.5740
2022-07-30T09:08:18.750Z,58.4040
2022-07-30T09:09:20.197Z,58.4780
2022-07-30T09:10:22.472Z,58.5330
2022-07-30T09:11:22.561Z,58.1000
2022-07-30T09:12:24.813Z,58.0640
2022-07-30T09:13:27.066Z,58.0620
2022-07-30T09:14:30.744Z,57.9540
2022-07-30T09:15:29.382Z,57.9040
2022-07-30T09:16:31.581Z,58.0130
2022-07-30T09:17:33.812Z,57.3850
2022-07-30T09:18:36.109Z,57.0830
2022-07-30T09:19:36.208Z,56.7700
2022-07-30T09:20:38.484Z,56.4740
2022-07-30T09:21:40.781Z,56.3880
2022-07-30T09:22:43.113Z,56.6260
2022-07-30T09:23:48.300Z,56.4090
2022-07-30T09:24:47.779Z,56.1650
2022-07-30T09:25:48.219Z,56.1270
2022-07-30T09:26:50.307Z,56.1840
2022-07-30T09:27:52.654Z,56.0430
2022-07-30T09:28:54.970Z,57.2900
2022-07-30T09:29:57.271Z,56.3700
2022-07-30T09:30:59.588Z,55.7920
2022-07-30T09:32:00.011Z,55.5460
2022-07-30T09:33:02.069Z,55.2580
2022-07-30T09:34:04.422Z,55.6080
2022-07-30T09:35:06.706Z,54.2150
2022-07-30T09:36:09.040Z,53.0770
2022-07-30T09:37:12.756Z,53.5930
2022-07-30T09:38:11.528Z,53.9300
2022-07-30T09:39:13.840Z,53.5220
2022-07-30T09:40:16.207Z,53.4450
2022-07-30T09:41:37.818Z,52.9090
2022-07-30T09:42:20.791Z,52.0670
2022-07-30T09:43:24.525Z,54.6050
2022-07-30T09:44:23.332Z,54.7850
2022-07-30T09:45:25.599Z,54.1030
2022-07-30T09:46:27.857Z,53.4460
2022-07-30T09:47:30.060Z,53.6370
2022-07-30T09:48:32.267Z,53.3140
2022-07-30T09:49:34.529Z,54.2360
2022-07-30T09:50:36.760Z,53.2970
2022-07-30T09:51:54.364Z,52.1100
2022-07-30T09:52:39.127Z,52.2700
2022-07-30T09:53:41.384Z,52.3870
2022-07-30T09:54:43.701Z,52.1430
2022-07-30T09:55:45.946Z,51.2930
2022-07-30T09:56:54.078Z,50.9000
2022-07-30T09:57:53.102Z,51.1580
2022-07-30T09:58:52.799Z,50.7740
2022-07-30T09:59:55.075Z,50.9170
2022-07-30T10:02:00.975Z,50.5240
2022-07-30T10:02:59.740Z,50.5300
2022-07-30T10:04:02.035Z,50.5770
2022-07-30T10:05:04.370Z,50.3930
2022-07-30T10:06:06.648Z,50.5330
2022-07-30T10:07:08.966Z,50.6820
2022-07-30T10:08:09.312Z,50.8230
2022-07-30T10:09:13.994Z,51.1230
2022-07-30T10:10:13.779Z,50.9760
2022-07-30T10:11:16.021Z,51.0880
2022-07-30T10:12:18.309Z,50.9170
2022-07-30T10:13:21.095Z,51.0370
2022-07-30T10:14:30.685Z,50.9400
2022-07-30T10:15:23.066Z,50.8200
2022-07-30T10:16:25.333Z,51.1450
2022-07-30T10:17:27.621Z,50.9670
2022-07-30T10:18:29.937Z,49.6750
2022-07-30T10:19:39.877Z,50.1580
2022-07-30T10:20:34.958Z,49.8970
2022-07-30T10:21:35.942Z,49.2730
2022-07-30T10:22:37.753Z,49.6520
2022-07-30T10:23:44.123Z,50.2420
2022-07-30T10:24:39.503Z,49.8620
2022-07-30T10:25:49.642Z,48.7040
2022-07-30T10:26:44.108Z,49.3550
2022-07-30T10:27:46.403Z,49.6660
2022-07-30T10:28:48.670Z,50.1660
2022-07-30T10:29:50.970Z,50.0430
2022-07-30T10:30:51.225Z,49.4420
2022-07-30T10:31:54.444Z,49.4580
2022-07-30T10:32:55.681Z,49.5520
2022-07-30T10:33:57.973Z,48.9240
2022-07-30T10:35:00.253Z,49.6020
2022-07-30T10:36:02.986Z,49.3250
2022-07-30T10:37:06.824Z,49.2150
2022-07-30T10:38:07.026Z,49.8790
2022-07-30T10:39:07.121Z,49.6490
2022-07-30T10:40:09.369Z,49.3950
2022-07-30T10:41:11.757Z,50.0310
2022-07-30T10:42:13.816Z,49.7440
2022-07-30T10:43:16.148Z,49.3940
2022-07-30T10:44:19.565Z,48.8520
2022-07-30T10:45:20.548Z,48.5640
2022-07-30T10:46:23.031Z,48.7540
2022-07-30T10:47:27.386Z,48.5180
2022-07-30T10:48:25.273Z,48.9180
2022-07-30T10:49:27.530Z,48.4700
2022-07-30T10:50:29.811Z,48.3200
2022-07-30T10:51:34.670Z,48.5240
2022-07-30T10:52:34.334Z,48.3590
2022-07-30T10:53:34.451Z,48.0070
2022-07-30T10:54:39.566Z,47.6620
2022-07-30T10:55:39.493Z,47.2930
2022-07-30T10:56:41.398Z,47.2690
2022-07-30T10:57:43.620Z,46.8990
2022-07-30T10:58:47.431Z,46.8060
2022-07-30T11:01:18.506Z,47.3380
2022-07-30T11:02:10.074Z,47.1740
2022-07-30T11:03:15.014Z,46.8180
2022-07-30T11:04:14.301Z,47.0020
2022-07-30T11:05:16.549Z,46.6680
2022-07-30T11:06:24.478Z,46.6970
2022-07-30T11:07:18.938Z,46.7370
2022-07-30T11:08:21.158Z,46.5030
2022-07-30T11:09:23.404Z,46.6320
2022-07-30T11:10:25.654Z,46.1180
2022-07-30T11:11:59.438Z,46.7210
2022-07-30T11:12:30.351Z,46.0800
2022-07-30T11:13:36.176Z,46.6460
2022-07-30T11:14:32.607Z,47.6200
2022-07-30T11:15:34.911Z,47.3510
2022-07-30T11:16:37.321Z,47.6920
2022-07-30T11:17:39.491Z,47.1740
2022-07-30T11:18:41.744Z,47.0500
2022-07-30T11:19:53.251Z,46.9090
2022-07-30T11:20:48.836Z,46.6520
2022-07-30T11:21:46.468Z,46.5870
2022-07-30T11:22:51.123Z,47.1150
2022-07-30T11:23:54.716Z,47.0770
2022-07-30T11:24:53.215Z,47.4720
2022-07-30T11:25:55.455Z,47.6000
2022-07-30T11:26:57.684Z,47.9610
2022-07-30T11:27:59.917Z,47.0340
2022-07-30T11:29:02.145Z,46.9040
2022-07-30T11:30:04.397Z,47.0250
2022-07-30T11:31:10.192Z,46.1840
2022-07-30T11:32:07.042Z,45.9880
2022-07-30T11:33:09.012Z,46.2980
2022-07-30T11:34:11.229Z,46.5700
2022-07-30T11:35:13.505Z,46.6210
2022-07-30T11:36:15.741Z,47.3170
2022-07-30T11:37:22.311Z,46.4580
2022-07-30T11:38:22.396Z,46.0570
2022-07-30T11:39:22.523Z,46.5260
2022-07-30T11:40:26.281Z,47.3560
2022-07-30T11:41:24.846Z,47.0930
2022-07-30T11:42:27.104Z,46.5040
2022-07-30T11:43:34.739Z,47.2030
2022-07-30T11:44:31.637Z,45.0900
2022-07-30T11:45:33.842Z,46.0450
2022-07-30T11:46:36.020Z,45.7780
2022-07-30T11:47:38.245Z,45.2780
2022-07-30T11:48:40.786Z,45.1900
2022-07-30T11:49:42.748Z,45.4680
2022-07-30T11:50:45.003Z,46.3150
2022-07-30T11:51:45.119Z,45.4750
2022-07-30T11:52:47.371Z,46.5950
2022-07-30T11:53:49.663Z,47.0520
2022-07-30T11:54:51.826Z,47.5870
2022-07-30T11:55:54.040Z,47.9570
2022-07-30T11:56:59.553Z,48.2520
2022-07-30T11:57:58.532Z,47.8850
2022-07-30T11:59:00.826Z,47.8420
2022-07-30T12:00:03.064Z,46.8500
2022-07-30T12:01:09.334Z,46.8220
2022-07-30T12:02:07.487Z,45.1150
2022-07-30T12:03:07.529Z,45.4030
2022-07-30T12:04:09.755Z,45.5170
2022-07-30T12:05:11.959Z,45.4000
2022-07-30T12:06:14.188Z,45.9730
2022-07-30T12:07:16.430Z,46.5650
2022-07-30T12:08:35.216Z,46.8930
2022-07-30T12:09:20.983Z,46.9880
2022-07-30T12:10:27.054Z,46.9740
2022-07-30T12:11:25.442Z,45.2490
2022-07-30T12:12:27.695Z,45.1980
2022-07-30T12:13:43.584Z,45.4080
2022-07-30T12:14:30.190Z,45.2590
2022-07-30T12:15:32.271Z,45.2010
2022-07-30T12:16:34.496Z,45.9250
2022-07-30T12:17:36.692Z,46.5940
2022-07-30T12:18:38.945Z,46.7730
2022-07-30T12:19:47.476Z,46.2120
2022-07-30T12:20:43.414Z,47.0130
2022-07-30T12:21:49.430Z,47.4040
2022-07-30T12:22:47.846Z,47.5810
2022-07-30T12:23:50.065Z,46.7440
2022-07-30T12:24:52.275Z,45.9840
2022-07-30T12:25:54.506Z,45.7460
2022-07-30T12:26:54.570Z,45.6410
2022-07-30T12:27:56.801Z,46.6240
2022-07-30T12:28:59.010Z,47.0870
2022-07-30T12:30:01.557Z,47.3360
2022-07-30T12:31:03.496Z,47.3760
2022-07-30T12:32:05.727Z,46.2230
2022-07-30T12:33:07.933Z,45.8910
2022-07-30T12:34:10.144Z,45.7080
2022-07-30T12:35:12.379Z,46.0580
2022-07-30T12:36:14.558Z,45.8350